Aviation Digital Data Service (ADDS)

Output produced by METARs form (0942 UTC 23 July 2014)
found at http://aviationweather.gov/adds/metars/
 
KSWF 230544Z 2306/2412 VRB04KT P6SM FEW250 
     FM231200 25009KT P6SM SCT050 BKN250 
     PROB30 2319/2324 5SM TSRA BKN050CB 
     FM240000 28006KT P6SM BKN050 BKN150 
     PROB30 2400/2405 5SM TSRA BKN050CB 
     FM240500 31007KT P6SM BKN120 
     FM240900 35007KT P6SM BKN120 
     TEMPO 2409/2412 4SM BR AMD NOT SKED